createdAt,value
2022-11-16T00:01:19.527Z,11.39
2022-11-16T00:03:47.626Z,10.76
2022-11-16T00:06:15.890Z,10.97
2022-11-16T00:09:07.297Z,11.12
2022-11-16T00:11:35.724Z,11.09
2022-11-16T00:14:05.224Z,10.88
2022-11-16T00:16:33.255Z,10.70
2022-11-16T00:19:02.797Z,10.54
2022-11-16T00:21:31.534Z,10.51
2022-11-16T00:24:02.134Z,10.68
2022-11-16T00:26:30.138Z,11.00
2022-11-16T00:28:58.656Z,10.67
2022-11-16T00:31:28.230Z,10.85
2022-11-16T00:33:56.241Z,10.77
2022-11-16T00:36:24.214Z,10.78
2022-11-16T00:38:53.381Z,11.04
2022-11-16T00:41:21.398Z,11.24
2022-11-16T00:43:49.547Z,11.06
2022-11-16T00:46:19.773Z,10.88
2022-11-16T00:48:49.230Z,10.73
2022-11-16T00:51:17.250Z,11.21
2022-11-16T00:53:45.227Z,10.96
2022-11-16T00:56:13.282Z,10.89
2022-11-16T00:58:44.708Z,11.02
2022-11-16T01:01:13.416Z,11.49
2022-11-16T01:03:41.487Z,11.63
2022-11-16T01:06:11.926Z,10.94
2022-11-16T01:08:40.768Z,11.41
2022-11-16T01:11:27.015Z,10.82
2022-11-16T01:13:56.602Z,10.82
2022-11-16T01:16:25.132Z,11.05
2022-11-16T01:18:54.506Z,10.88
2022-11-16T01:21:26.802Z,11.13
2022-11-16T01:23:55.733Z,10.81
2022-11-16T01:26:23.823Z,10.61
2022-11-16T01:28:51.947Z,11.08
2022-11-16T01:31:20.250Z,11.26
2022-11-16T01:33:50.417Z,11.23
2022-11-16T01:36:23.215Z,10.95
2022-11-16T01:38:52.579Z,10.95
2022-11-16T01:41:25.019Z,10.57
2022-11-16T01:43:59.706Z,10.70
2022-11-16T01:46:33.117Z,11.02
2022-11-16T01:49:06.338Z,11.22
2022-11-16T01:51:35.655Z,10.85
2022-11-16T01:54:09.838Z,10.86
2022-11-16T01:56:42.593Z,11.41
2022-11-16T01:59:13.424Z,10.30
2022-11-16T02:01:41.830Z,10.38
2022-11-16T02:04:11.027Z,10.70
2022-11-16T02:06:49.747Z,10.21
2022-11-16T02:09:46.130Z,10.29
2022-11-16T02:12:21.034Z,10.38
2022-11-16T02:15:00.516Z,10.21
2022-11-16T02:17:33.984Z,10.23
2022-11-16T02:20:24.082Z,10.34
2022-11-16T02:23:02.359Z,10.92
2022-11-16T02:25:35.596Z,10.89
2022-11-16T02:28:11.372Z,10.73
2022-11-16T02:30:43.075Z,10.97
2022-11-16T02:33:12.904Z,10.92
2022-11-16T02:35:44.482Z,11.05
2022-11-16T02:38:17.185Z,10.73
2022-11-16T02:40:47.484Z,10.56
2022-11-16T02:43:23.696Z,10.61
2022-11-16T02:45:56.422Z,10.69
2022-11-16T02:48:35.580Z,10.75
2022-11-16T02:51:04.266Z,10.57
2022-11-16T02:53:33.559Z,10.64
2022-11-16T02:56:02.010Z,10.95
2022-11-16T02:58:30.308Z,11.17
2022-11-16T03:01:02.194Z,10.63
2022-11-16T03:03:35.548Z,11.03
2022-11-16T03:06:06.610Z,10.76
2022-11-16T03:08:38.758Z,10.80
2022-11-16T03:11:40.846Z,10.65
2022-11-16T03:14:12.840Z,10.91
2022-11-16T03:16:47.361Z,10.80
2022-11-16T03:19:23.093Z,11.11
2022-11-16T03:21:53.875Z,11.14
2022-11-16T03:24:22.007Z,10.92
2022-11-16T03:26:52.187Z,10.95
2022-11-16T03:29:23.612Z,11.18
2022-11-16T03:31:58.148Z,10.87
2022-11-16T03:34:30.403Z,10.98
2022-11-16T03:37:00.267Z,10.92
2022-11-16T03:39:31.647Z,10.64
2022-11-16T03:42:01.274Z,10.75
2022-11-16T03:44:31.676Z,10.90
2022-11-16T03:47:02.269Z,11.12
2022-11-16T03:49:31.213Z,10.80
2022-11-16T03:51:59.342Z,11.17
2022-11-16T03:54:27.394Z,10.77
2022-11-16T03:56:57.826Z,10.64
2022-11-16T03:59:25.871Z,10.94
2022-11-16T04:01:56.197Z,11.06
2022-11-16T04:04:43.351Z,10.81
2022-11-16T04:07:29.199Z,10.89
2022-11-16T04:10:15.016Z,10.65
2022-11-16T04:13:02.337Z,10.68
2022-11-16T04:15:48.109Z,11.16
2022-11-16T04:18:34.483Z,11.13
2022-11-16T04:21:21.841Z,10.63
2022-11-16T04:24:07.666Z,10.51
2022-11-16T04:26:52.414Z,10.55
2022-11-16T04:29:21.123Z,10.41
2022-11-16T04:32:06.944Z,10.38
2022-11-16T04:34:53.131Z,10.18
2022-11-16T04:37:43.221Z,10.38
2022-11-16T04:40:12.421Z,10.25
2022-11-16T04:42:40.509Z,10.27
2022-11-16T04:45:27.799Z,10.26
2022-11-16T04:47:55.907Z,10.50
2022-11-16T04:50:29.025Z,10.27
2022-11-16T04:52:59.840Z,10.24
2022-11-16T04:55:27.917Z,10.28
2022-11-16T04:57:55.935Z,10.19
2022-11-16T05:00:24.264Z,10.25
2022-11-16T05:02:55.682Z,10.16
2022-11-16T05:05:28.813Z,10.28
2022-11-16T05:07:57.246Z,10.28
2022-11-16T05:10:30.551Z,10.57
2022-11-16T05:12:58.609Z,10.95
2022-11-16T05:15:28.391Z,10.88
2022-11-16T05:17:58.211Z,10.75
2022-11-16T05:20:50.094Z,11.09
2022-11-16T05:23:36.274Z,11.23
2022-11-16T05:26:11.141Z,10.64
2022-11-16T05:28:39.724Z,10.75
2022-11-16T05:31:10.066Z,10.26
2022-11-16T05:33:38.127Z,10.57
2022-11-16T05:36:06.835Z,10.67
2022-11-16T05:38:35.019Z,10.37
2022-11-16T05:41:03.177Z,10.22
2022-11-16T05:43:33.397Z,10.06
2022-11-16T05:46:27.617Z,9.65
2022-11-16T05:48:58.514Z,9.72
2022-11-16T05:51:26.992Z,9.74
2022-11-16T05:53:56.115Z,9.90
2022-11-16T05:56:24.983Z,10.20
2022-11-16T05:58:56.494Z,9.82
2022-11-16T06:01:24.613Z,9.78
2022-11-16T06:03:55.118Z,10.10
2022-11-16T06:06:23.105Z,10.15
2022-11-16T06:08:52.272Z,9.82
2022-11-16T06:11:25.494Z,10.22
2022-11-16T06:13:53.821Z,10.45
2022-11-16T06:16:25.269Z,9.68
2022-11-16T06:18:55.882Z,10.19
2022-11-16T06:21:26.319Z,10.53
2022-11-16T06:23:57.393Z,10.34
2022-11-16T06:26:25.419Z,10.35
2022-11-16T06:28:54.829Z,10.42
2022-11-16T06:31:25.134Z,10.40
2022-11-16T06:33:54.780Z,10.72
2022-11-16T06:36:26.852Z,10.99
2022-11-16T06:38:54.857Z,10.75
2022-11-16T06:41:23.754Z,10.67
2022-11-16T06:43:52.644Z,10.81
2022-11-16T06:46:26.138Z,10.54
2022-11-16T06:48:54.801Z,10.26
2022-11-16T06:51:23.093Z,10.09
2022-11-16T06:53:51.070Z,10.18
2022-11-16T06:56:20.135Z,10.60
2022-11-16T06:58:53.798Z,10.25
2022-11-16T07:01:24.093Z,10.35
2022-11-16T07:03:59.010Z,10.50
2022-11-16T07:06:27.623Z,10.30
2022-11-16T07:08:55.875Z,10.35
2022-11-16T07:11:27.684Z,10.46
2022-11-16T07:13:59.729Z,10.42
2022-11-16T07:16:28.862Z,10.80
2022-11-16T07:19:01.997Z,10.51
2022-11-16T07:21:32.113Z,10.51
2022-11-16T07:24:03.115Z,10.38
2022-11-16T07:26:33.102Z,10.76
2022-11-16T07:29:07.737Z,10.68
2022-11-16T07:31:38.890Z,10.85
2022-11-16T07:34:38.863Z,10.86
2022-11-16T07:37:10.234Z,11.05
2022-11-16T07:39:38.874Z,10.78
2022-11-16T07:42:11.771Z,10.80
2022-11-16T07:44:50.807Z,10.73
2022-11-16T07:47:18.877Z,11.14
2022-11-16T07:49:48.976Z,10.93
2022-11-16T07:52:20.425Z,11.18
2022-11-16T07:54:57.250Z,10.88
2022-11-16T07:57:27.571Z,11.64
2022-11-16T07:59:57.431Z,11.48
2022-11-16T08:02:30.458Z,11.33
2022-11-16T08:04:59.911Z,11.70
2022-11-16T08:07:29.581Z,11.84
2022-11-16T08:09:58.145Z,11.49
2022-11-16T08:12:28.736Z,11.86
2022-11-16T08:14:59.174Z,11.50
2022-11-16T08:17:27.196Z,11.79
2022-11-16T08:19:55.486Z,11.94
2022-11-16T08:22:25.249Z,12.13
2022-11-16T08:24:53.893Z,11.99
2022-11-16T08:27:25.850Z,11.81
2022-11-16T08:29:57.723Z,11.65
2022-11-16T08:32:25.981Z,11.63
2022-11-16T08:34:55.279Z,11.83
2022-11-16T08:37:26.012Z,12.28
2022-11-16T08:39:54.353Z,12.15
2022-11-16T08:42:22.679Z,12.22
2022-11-16T08:44:50.984Z,11.83
2022-11-16T08:47:21.081Z,11.61
2022-11-16T08:49:59.924Z,11.92
2022-11-16T08:52:32.920Z,11.79
2022-11-16T08:55:02.178Z,11.95
2022-11-16T08:57:30.974Z,11.99
2022-11-16T09:00:01.394Z,11.94
2022-11-16T09:02:31.737Z,12.23
2022-11-16T09:04:59.736Z,11.98
2022-11-16T09:07:27.846Z,12.73
2022-11-16T09:09:57.257Z,13.09
2022-11-16T09:12:25.253Z,12.99
2022-11-16T09:14:53.259Z,13.30
2022-11-16T09:17:23.248Z,12.59
2022-11-16T09:19:51.463Z,12.84
2022-11-16T09:22:21.891Z,13.15
2022-11-16T09:24:49.994Z,12.64
2022-11-16T09:27:21.836Z,12.93
2022-11-16T09:29:49.842Z,12.78
2022-11-16T09:32:17.864Z,12.97
2022-11-16T09:34:45.882Z,13.37
2022-11-16T09:37:15.261Z,13.36
2022-11-16T09:39:45.390Z,13.24
2022-11-16T09:42:27.681Z,13.46
2022-11-16T09:45:00.504Z,13.35
2022-11-16T09:47:39.057Z,13.63
2022-11-16T09:50:08.302Z,13.87
2022-11-16T09:52:39.954Z,13.91
2022-11-16T09:55:20.578Z,13.40
2022-11-16T09:57:51.119Z,13.91
2022-11-16T10:00:21.715Z,14.59
2022-11-16T10:02:53.579Z,14.70
2022-11-16T10:05:22.781Z,13.98
2022-11-16T10:07:52.499Z,13.58
2022-11-16T10:10:28.771Z,14.32
2022-11-16T10:13:01.647Z,13.86
2022-11-16T10:15:35.762Z,14.23
2022-11-16T10:18:18.246Z,14.29
2022-11-16T10:21:10.295Z,14.10
2022-11-16T10:23:44.616Z,14.87
2022-11-16T10:26:21.551Z,14.95
2022-11-16T10:28:57.917Z,14.61
2022-11-16T10:31:31.935Z,14.96
2022-11-16T10:34:02.932Z,14.47
2022-11-16T10:36:32.081Z,14.15
2022-11-16T10:39:01.193Z,13.96
2022-11-16T10:41:32.724Z,13.63
2022-11-16T10:44:02.700Z,13.73
2022-11-16T10:46:34.671Z,13.56
2022-11-16T10:49:08.540Z,12.99
2022-11-16T10:51:36.593Z,12.81
2022-11-16T10:54:12.372Z,13.28
2022-11-16T10:56:42.601Z,13.57
2022-11-16T10:59:13.449Z,13.49
2022-11-16T11:01:43.336Z,13.59
2022-11-16T11:04:23.435Z,13.46
2022-11-16T11:06:52.515Z,13.21
2022-11-16T11:09:27.879Z,13.17
2022-11-16T11:12:18.477Z,13.64
2022-11-16T11:15:01.447Z,13.22
2022-11-16T11:17:30.016Z,14.23
2022-11-16T11:19:59.565Z,14.09
2022-11-16T11:22:27.986Z,13.97
2022-11-16T11:24:56.166Z,14.10
2022-11-16T11:27:28.961Z,14.55
2022-11-16T11:30:01.310Z,14.01
2022-11-16T11:32:33.107Z,14.41
2022-11-16T11:35:01.825Z,14.96
2022-11-16T11:37:31.579Z,14.34
2022-11-16T11:40:20.587Z,14.96
2022-11-16T11:42:56.026Z,14.71
2022-11-16T11:45:26.614Z,14.54
2022-11-16T11:47:59.431Z,14.92
2022-11-16T11:50:35.337Z,14.21
2022-11-16T11:53:08.066Z,14.75
2022-11-16T11:55:36.063Z,14.52
2022-11-16T11:58:07.223Z,14.38
2022-11-16T12:00:42.464Z,14.38
2022-11-16T12:03:25.940Z,15.16
2022-11-16T12:05:58.977Z,14.75
2022-11-16T12:08:36.648Z,14.55
2022-11-16T12:11:10.420Z,15.33
2022-11-16T12:13:52.043Z,15.40
2022-11-16T12:16:27.115Z,14.25
2022-11-16T12:19:04.024Z,14.31
2022-11-16T12:21:39.239Z,13.97
2022-11-16T12:24:25.287Z,15.01
2022-11-16T12:27:01.399Z,14.35
2022-11-16T12:29:34.573Z,14.65
2022-11-16T12:32:15.267Z,13.99
2022-11-16T12:34:52.303Z,14.63
2022-11-16T12:37:23.547Z,14.85
2022-11-16T12:39:56.939Z,15.20
2022-11-16T12:42:42.735Z,14.63
2022-11-16T12:45:26.333Z,14.99
2022-11-16T12:48:09.705Z,15.09
2022-11-16T12:50:46.249Z,14.81
2022-11-16T12:53:20.623Z,15.21
2022-11-16T12:55:52.549Z,15.45
2022-11-16T12:58:29.616Z,15.15
2022-11-16T13:01:02.553Z,14.79
2022-11-16T13:03:36.578Z,15.33
2022-11-16T13:06:07.640Z,15.14
2022-11-16T13:08:48.329Z,15.38
2022-11-16T13:11:18.860Z,15.55
2022-11-16T13:13:53.456Z,14.82
2022-11-16T13:16:25.891Z,14.67
2022-11-16T13:19:09.717Z,14.96
2022-11-16T13:21:44.596Z,14.26
2022-11-16T13:24:25.847Z,14.23
2022-11-16T13:27:05.532Z,14.26
2022-11-16T13:29:41.093Z,14.57
2022-11-16T13:32:20.925Z,14.39
2022-11-16T13:34:51.295Z,14.31
2022-11-16T13:37:37.975Z,13.86
2022-11-16T13:40:26.299Z,13.81
2022-11-16T13:43:02.790Z,14.26
2022-11-16T13:45:33.207Z,14.18
2022-11-16T13:48:02.181Z,13.82
2022-11-16T13:50:37.814Z,14.19
2022-11-16T13:55:56.652Z,13.91
2022-11-16T13:58:27.947Z,13.77
2022-11-16T14:01:07.439Z,14.16
2022-11-16T14:03:39.436Z,14.49
2022-11-16T14:06:29.278Z,14.61
2022-11-16T14:08:59.697Z,14.18
2022-11-16T14:11:33.155Z,14.39
2022-11-16T14:14:05.670Z,14.56
2022-11-16T14:16:46.263Z,14.53
2022-11-16T14:19:33.013Z,14.53
2022-11-16T14:22:07.833Z,14.40
2022-11-16T14:24:38.136Z,14.31
2022-11-16T14:27:09.700Z,14.45
2022-11-16T14:29:45.296Z,14.10
2022-11-16T14:32:21.776Z,14.41
2022-11-16T14:34:53.131Z,14.04
2022-11-16T14:37:33.587Z,13.98
2022-11-16T14:40:03.563Z,13.90
2022-11-16T14:42:54.287Z,14.21
2022-11-16T14:45:27.090Z,14.44
2022-11-16T14:47:57.617Z,14.08
2022-11-16T14:50:30.144Z,13.96
2022-11-16T14:53:03.102Z,14.03
2022-11-16T14:55:31.103Z,13.96
2022-11-16T14:58:08.770Z,14.04
2022-11-16T15:00:37.372Z,13.88
2022-11-16T15:03:06.306Z,14.01
2022-11-16T15:05:35.505Z,14.19
2022-11-16T15:08:08.797Z,14.13
2022-11-16T15:10:36.843Z,13.79
2022-11-16T15:13:05.039Z,13.95
2022-11-16T15:15:33.120Z,13.70
2022-11-16T15:18:08.180Z,13.54
2022-11-16T15:20:37.270Z,13.21
2022-11-16T15:23:14.534Z,13.20
2022-11-16T15:25:44.034Z,12.88
2022-11-16T15:28:16.318Z,12.80
2022-11-16T15:30:46.424Z,12.73
2022-11-16T15:33:17.825Z,12.46
2022-11-16T15:35:47.133Z,12.41
2022-11-16T15:38:17.894Z,12.34
2022-11-16T15:40:47.682Z,12.21
2022-11-16T15:43:16.093Z,12.15
2022-11-16T15:45:44.571Z,11.95
2022-11-16T15:48:15.216Z,12.19
2022-11-16T15:50:56.979Z,12.03
2022-11-16T15:53:36.845Z,10.92
2022-11-16T15:56:06.682Z,11.15
2022-11-16T15:58:38.283Z,11.13
2022-11-16T16:01:06.476Z,10.94
2022-11-16T16:03:36.351Z,11.16
2022-11-16T16:06:05.498Z,11.08
2022-11-16T16:08:34.317Z,11.07
2022-11-16T16:11:05.983Z,11.15
2022-11-16T16:13:35.886Z,10.75
2022-11-16T16:16:20.584Z,10.87
2022-11-16T16:18:48.745Z,10.68
2022-11-16T16:21:17.199Z,10.53
2022-11-16T16:23:46.473Z,10.91
2022-11-16T16:26:16.100Z,10.61
2022-11-16T16:28:44.358Z,10.56
2022-11-16T16:31:15.349Z,10.67
2022-11-16T16:33:43.325Z,10.55
2022-11-16T16:36:13.525Z,10.52
2022-11-16T16:38:41.500Z,10.72
2022-11-16T16:41:21.174Z,10.35
2022-11-16T16:43:53.237Z,10.10
2022-11-16T16:46:21.719Z,9.99
2022-11-16T16:48:49.720Z,10.15
2022-11-16T16:51:17.774Z,10.49
2022-11-16T16:53:45.733Z,10.49
2022-11-16T16:56:15.606Z,10.10
2022-11-16T16:58:43.609Z,10.03
2022-11-16T17:01:13.106Z,10.40
2022-11-16T17:03:41.158Z,10.28
2022-11-16T17:06:09.368Z,9.88
2022-11-16T17:08:38.098Z,9.93
2022-11-16T17:11:08.980Z,9.98
2022-11-16T17:13:37.187Z,10.13
2022-11-16T17:16:06.638Z,9.95
2022-11-16T17:18:36.041Z,9.95
2022-11-16T17:21:04.675Z,10.05
2022-11-16T17:23:33.088Z,10.21
2022-11-16T17:26:04.864Z,10.03
2022-11-16T17:28:32.872Z,10.04
2022-11-16T17:31:05.088Z,10.12
2022-11-16T17:33:34.398Z,10.31
2022-11-16T17:36:04.497Z,10.15
2022-11-16T17:38:35.737Z,10.24
2022-11-16T17:41:04.508Z,10.39
2022-11-16T17:43:33.046Z,10.54
2022-11-16T17:46:05.293Z,10.09
2022-11-16T17:48:35.997Z,10.34
2022-11-16T17:51:05.579Z,10.46
2022-11-16T17:53:36.631Z,10.22
2022-11-16T17:56:05.239Z,10.39
2022-11-16T17:58:33.928Z,10.66
2022-11-16T18:01:02.031Z,10.66
2022-11-16T18:03:30.293Z,10.52
2022-11-16T18:06:02.376Z,10.82
2022-11-16T18:08:31.903Z,10.80
2022-11-16T18:11:04.139Z,10.72
2022-11-16T18:13:32.532Z,10.59
2022-11-16T18:16:04.620Z,10.45
2022-11-16T18:18:33.010Z,10.64
2022-11-16T18:21:01.572Z,10.52
2022-11-16T18:23:30.019Z,10.81
2022-11-16T18:26:03.227Z,10.60
2022-11-16T18:28:31.201Z,10.69
2022-11-16T18:31:03.020Z,10.66
2022-11-16T18:33:31.043Z,10.40
2022-11-16T18:35:59.207Z,10.38
2022-11-16T18:38:27.268Z,10.38
2022-11-16T18:41:06.812Z,10.53
2022-11-16T18:43:35.668Z,10.35
2022-11-16T18:46:04.226Z,10.23
2022-11-16T18:48:32.596Z,10.15
2022-11-16T18:51:00.832Z,10.13
2022-11-16T18:53:29.357Z,10.08
2022-11-16T18:55:58.391Z,10.42
2022-11-16T19:01:19.613Z,10.32
2022-11-16T19:03:47.823Z,10.15
2022-11-16T19:06:17.459Z,10.32
2022-11-16T19:08:51.839Z,10.49
2022-11-16T19:11:24.106Z,9.83
2022-11-16T19:14:00.483Z,9.28
2022-11-16T19:16:31.902Z,9.19
2022-11-16T19:19:01.255Z,9.28
2022-11-16T19:21:29.538Z,9.32
2022-11-16T19:23:58.480Z,9.27
2022-11-16T19:26:29.861Z,9.57
2022-11-16T19:28:59.521Z,9.56
2022-11-16T19:31:28.553Z,9.75
2022-11-16T19:33:57.099Z,9.55
2022-11-16T19:36:25.750Z,9.65
2022-11-16T19:38:54.224Z,9.26
2022-11-16T19:41:25.048Z,9.54
2022-11-16T19:43:57.281Z,9.86
2022-11-16T19:46:27.381Z,9.79
2022-11-16T19:48:56.107Z,9.64
2022-11-16T19:51:30.929Z,9.55
2022-11-16T19:53:59.355Z,9.97
2022-11-16T19:56:27.393Z,9.95
2022-11-16T19:58:55.433Z,9.71
2022-11-16T20:01:25.393Z,9.88
2022-11-16T20:03:56.989Z,9.60
2022-11-16T20:06:26.512Z,9.43
2022-11-16T20:08:56.772Z,9.51
2022-11-16T20:11:26.193Z,8.85
2022-11-16T20:13:55.519Z,8.94
2022-11-16T20:16:27.331Z,8.96
2022-11-16T20:18:57.294Z,9.23
2022-11-16T20:21:26.406Z,8.96
2022-11-16T20:24:04.691Z,9.08
2022-11-16T20:26:34.884Z,8.99
2022-11-16T20:29:03.065Z,9.10
2022-11-16T20:31:32.001Z,9.01
2022-11-16T20:34:02.132Z,9.05
2022-11-16T20:36:31.403Z,8.64
2022-11-16T20:39:04.947Z,8.59
2022-11-16T20:41:33.434Z,8.58
2022-11-16T20:44:02.473Z,8.76
2022-11-16T20:46:33.773Z,8.66
2022-11-16T20:49:05.469Z,8.53
2022-11-16T20:51:33.572Z,9.06
2022-11-16T20:54:01.588Z,9.07
2022-11-16T20:56:29.953Z,9.07
2022-11-16T20:58:58.200Z,9.18
2022-11-16T21:01:31.353Z,9.24
2022-11-16T21:04:01.038Z,8.84
2022-11-16T21:06:30.956Z,9.05
2022-11-16T21:08:59.266Z,9.23
2022-11-16T21:11:28.913Z,8.81
2022-11-16T21:14:14.665Z,9.17
2022-11-16T21:16:42.803Z,9.44
2022-11-16T21:19:12.512Z,9.29
2022-11-16T21:21:42.418Z,9.07
2022-11-16T21:24:15.646Z,8.99
2022-11-16T21:26:46.467Z,8.75
2022-11-16T21:29:14.580Z,8.55
2022-11-16T21:31:42.728Z,8.84
2022-11-16T21:34:13.561Z,8.53
2022-11-16T21:36:42.965Z,8.46
2022-11-16T21:39:10.950Z,8.87
2022-11-16T21:41:38.945Z,8.36
2022-11-16T21:44:06.924Z,8.33
2022-11-16T21:46:34.955Z,8.70
2022-11-16T21:49:05.090Z,9.20
2022-11-16T21:51:33.076Z,8.70
2022-11-16T21:54:02.566Z,8.36
2022-11-16T21:56:30.572Z,8.18
2022-11-16T21:58:58.713Z,8.59
2022-11-16T22:02:38.932Z,8.51
2022-11-16T22:05:26.396Z,8.61
2022-11-16T22:07:54.658Z,8.55
2022-11-16T22:10:23.000Z,8.57
2022-11-16T22:12:51.251Z,8.61
2022-11-16T22:15:19.612Z,8.86
2022-11-16T22:17:49.222Z,9.16
2022-11-16T22:20:18.059Z,9.16
2022-11-16T22:22:46.470Z,9.11
2022-11-16T22:25:14.879Z,8.97
2022-11-16T22:28:13.510Z,9.02
2022-11-16T22:30:31.452Z,9.48
2022-11-16T22:33:01.044Z,9.57
2022-11-16T22:35:29.263Z,9.12
2022-11-16T22:37:59.892Z,9.24
2022-11-16T22:40:28.177Z,9.44
2022-11-16T22:42:58.174Z,9.28
2022-11-16T22:45:26.787Z,9.15
2022-11-16T22:47:57.410Z,9.09
2022-11-16T22:50:27.078Z,9.24
2022-11-16T22:52:58.887Z,9.17
2022-11-16T22:55:27.151Z,9.12
2022-11-16T22:57:55.407Z,9.01
2022-11-16T23:00:23.699Z,8.92
2022-11-16T23:02:52.944Z,9.28
2022-11-16T23:05:21.178Z,9.45
2022-11-16T23:07:50.974Z,9.11
2022-11-16T23:10:21.385Z,9.04
2022-11-16T23:13:07.139Z,9.21
2022-11-16T23:15:55.034Z,9.03
2022-11-16T23:18:23.294Z,8.98
2022-11-16T23:21:08.977Z,9.00
2022-11-16T23:23:56.282Z,9.07
2022-11-16T23:26:42.342Z,9.07
2022-11-16T23:29:12.074Z,9.65
2022-11-16T23:31:40.357Z,9.39
2022-11-16T23:34:08.634Z,9.32
2022-11-16T23:36:36.983Z,9.57
2022-11-16T23:39:06.645Z,9.54
2022-11-16T23:41:52.353Z,9.21
2022-11-16T23:44:20.632Z,9.59
2022-11-16T23:46:48.928Z,9.61
2022-11-16T23:49:17.169Z,9.17
2022-11-16T23:51:45.519Z,9.10
2022-11-16T23:54:15.158Z,9.00
2022-11-16T23:56:43.408Z,8.84
2022-11-16T23:59:11.660Z,8.67
